Observation data for Morton on 12/09/2018      Previous  Date       Current Mesonet Observations  Soil Data  Daily Summary Page  Observations in Plain Language
KMNS 090600Z 27003KT M07/M08 A3029 RMK A01 T10731084  RH  092%=      5-min Rain = 0
KMNS 090605Z 27004KT M08/M09 A3029 RMK A01 T10751087  RH  091%=      5-min Rain = 0
KMNS 090610Z 27005KT M08/M09 A3029 RMK A01 T10771089  RH  091%=      5-min Rain = 0
KMNS 090615Z 28005KT M08/M09 A3029 RMK A01 T10751086  RH  091%=      5-min Rain = 0
KMNS 090620Z 28005KT M07/M08 A3028 RMK A01 T10701081  RH  092%=      5-min Rain = 0
KMNS 090625Z 28005KT M07/M08 A3028 RMK A01 T10701081  RH  092%=      5-min Rain = 0
KMNS 090630Z 28005KT M07/M08 A3028 RMK A01 T10711082  RH  092%=      5-min Rain = 0
KMNS 090635Z 28005KT M07/M08 A3028 RMK A01 T10711082  RH  092%=      5-min Rain = 0
KMNS 090640Z 29005KT M07/M08 A3028 RMK A01 T10721083  RH  092%=      5-min Rain = 0
KMNS 090645Z 29005KT M07/M08 A3028 RMK A01 T10731084  RH  092%=      5-min Rain = 0
KMNS 090650Z 28005KT M07/M09 A3028 RMK A01 T10741085  RH  092%=      5-min Rain = 0
KMNS 090655Z 28005KT M08/M09 A3028 RMK A01 T10751086  RH  092%=      5-min Rain = 0
KMNS 090700Z 28005KT M08/M09 A3028 RMK A01 T10781089  RH  092%=      5-min Rain = 0
KMNS 090705Z 29005KT M08/M09 A3027 RMK A01 T10781089  RH  092%=      5-min Rain = 0
KMNS 090710Z 29004KT M08/M09 A3027 RMK A01 T10751085  RH  092%=      5-min Rain = 0
KMNS 090715Z 28005KT M08/M09 A3027 RMK A01 T10761087  RH  092%=      5-min Rain = 0
KMNS 090720Z 29003KT M08/M09 A3027 RMK A01 T10781090  RH  091%=      5-min Rain = 0
KMNS 090725Z 31003KT M08/M09 A3027 RMK A01 T10801092  RH  090%=      5-min Rain = 0
KMNS 090730Z 31003KT M08/M09 A3027 RMK A01 T10811093  RH  090%=      5-min Rain = 0
KMNS 090735Z 30003KT M08/M09 A3027 RMK A01 T10791092  RH  091%=      5-min Rain = 0
KMNS 090740Z 30004KT M08/M09 A3027 RMK A01 T10781090  RH  091%=      5-min Rain = 0
KMNS 090745Z 29004KT M08/M09 A3027 RMK A01 T10761088  RH  091%=      5-min Rain = 0
KMNS 090750Z 29004KT M08/M09 A3027 RMK A01 T10781091  RH  091%=      5-min Rain = 0
KMNS 090755Z 29004KT M08/M10 A3027 RMK A01 T10821095  RH  090%=      5-min Rain = 0
KMNS 090800Z 30004KT M08/M10 A3027 RMK A01 T10821095  RH  090%=      5-min Rain = 0
KMNS 090805Z 30003KT M08/M09 A3027 RMK A01 T10801093  RH  090%=      5-min Rain = 0
KMNS 090810Z 30004KT M08/M09 A3027 RMK A01 T10781091  RH  091%=      5-min Rain = 0
KMNS 090815Z 29004KT M08/M09 A3027 RMK A01 T10781090  RH  091%=      5-min Rain = 0
KMNS 090820Z 30004KT M08/M09 A3027 RMK A01 T10781090  RH  091%=      5-min Rain = 0
KMNS 090825Z 29003KT M08/M09 A3028 RMK A01 T10811093  RH  090%=      5-min Rain = 0
KMNS 090830Z 29004KT M08/M10 A3028 RMK A01 T10831096  RH  090%=      5-min Rain = 0
KMNS 090835Z 29004KT M08/M10 A3027 RMK A01 T10821095  RH  090%=      5-min Rain = 0
KMNS 090840Z 30004KT M08/M09 A3027 RMK A01 T10811094  RH  090%=      5-min Rain = 0
KMNS 090845Z 30004KT M08/M09 A3027 RMK A01 T10791092  RH  090%=      5-min Rain = 0
KMNS 090850Z 30003KT M08/M09 A3027 RMK A01 T10771089  RH  091%=      5-min Rain = 0
KMNS 090855Z 30004KT M08/M09 A3027 RMK A01 T10781090  RH  090%=      5-min Rain = 0
KMNS 090900Z 31003KT M08/M09 A3027 RMK A01 T10791092  RH  090%=      5-min Rain = 0
KMNS 090905Z 31003KT M08/M09 A3027 RMK A01 T10801093  RH  090%=      5-min Rain = 0
KMNS 090910Z 30004KT M08/M09 A3027 RMK A01 T10801093  RH  090%=      5-min Rain = 0
KMNS 090915Z 31004KT M08/M09 A3027 RMK A01 T10801093  RH  090%=      5-min Rain = 0
KMNS 090920Z 30004KT M08/M09 A3027 RMK A01 T10801093  RH  090%=      5-min Rain = 0
KMNS 090925Z 29004KT M08/M09 A3027 RMK A01 T10791092  RH  090%=      5-min Rain = 0
KMNS 090930Z 30004KT M08/M09 A3027 RMK A01 T10801094  RH  090%=      5-min Rain = 0
KMNS 090935Z 30005KT M08/M09 A3027 RMK A01 T10791091  RH  090%=      5-min Rain = 0
KMNS 090940Z 29004KT M08/M09 A3027 RMK A01 T10791092  RH  090%=      5-min Rain = 0
KMNS 090945Z 30004KT M08/M09 A3027 RMK A01 T10801093  RH  090%=      5-min Rain = 0
KMNS 090950Z 30003KT M08/M09 A3027 RMK A01 T10801093  RH  090%=      5-min Rain = 0
KMNS 090955Z 29003KT M08/M10 A3027 RMK A01 T10841098  RH  089%=      5-min Rain = 0
KMNS 091000Z 28004KT M08/M10 A3028 RMK A01 T10841098  RH  090%=      5-min Rain = 0
KMNS 091005Z 29002KT M08/M10 A3028 RMK A01 T10831097  RH  090%=      5-min Rain = 0
KMNS 091010Z 30002KT M08/M10 A3027 RMK A01 T10821096  RH  090%=      5-min Rain = 0
KMNS 091015Z 30002KT M08/M09 A3027 RMK A01 T10811094  RH  090%=      5-min Rain = 0
KMNS 091020Z 29003KT M08/M10 A3027 RMK A01 T10821095  RH  090%=      5-min Rain = 0
KMNS 091025Z 29003KT M08/M10 A3027 RMK A01 T10831096  RH  090%=      5-min Rain = 0
KMNS 091030Z 29004KT M09/M10 A3028 RMK A01 T10851099  RH  089%=      5-min Rain = 0
KMNS 091035Z 29003KT M09/M10 A3028 RMK A01 T10851099  RH  089%=      5-min Rain = 0
KMNS 091040Z 30003KT M08/M10 A3028 RMK A01 T10841097  RH  090%=      5-min Rain = 0
KMNS 091045Z 29004KT M08/M09 A3028 RMK A01 T10801093  RH  090%=      5-min Rain = 0
KMNS 091050Z 29004KT M08/M09 A3027 RMK A01 T10791092  RH  090%=      5-min Rain = 0
KMNS 091055Z 29004KT M08/M09 A3028 RMK A01 T10781091  RH  090%=      5-min Rain = 0
KMNS 091100Z 30002KT M08/M09 A3028 RMK A01 T10781091  RH  090%=      5-min Rain = 0
KMNS 091105Z 31003KT M08/M10 A3028 RMK A01 T10821095  RH  090%=      5-min Rain = 0
KMNS 091110Z 31004KT M08/M10 A3028 RMK A01 T10811095  RH  090%=      5-min Rain = 0
KMNS 091115Z 31004KT M08/M09 A3028 RMK A01 T10811094  RH  090%=      5-min Rain = 0
KMNS 091120Z 31004KT M08/M09 A3028 RMK A01 T10801093  RH  090%=      5-min Rain = 0
KMNS 091125Z 30003KT M08/M09 A3028 RMK A01 T10801093  RH  090%=      5-min Rain = 0
KMNS 091130Z 30004KT M08/M09 A3028 RMK A01 T10801093  RH  090%=      5-min Rain = 0
KMNS 091135Z 32005KT M08/M09 A3028 RMK A01 T10791092  RH  090%=      5-min Rain = 0
KMNS 091140Z 32004KT M08/M09 A3028 RMK A01 T10791092  RH  090%=      5-min Rain = 0
KMNS 091145Z 31003KT M08/M09 A3028 RMK A01 T10801093  RH  090%=      5-min Rain = 0
KMNS 091150Z 31004KT M08/M10 A3028 RMK A01 T10821095  RH  090%=      5-min Rain = 0
KMNS 091155Z 32005KT M08/M10 A3029 RMK A01 T10821096  RH  090%=      5-min Rain = 0
KMNS 091200Z 31005KT M08/M09 A3029 RMK A01 T10811094  RH  090%=      5-min Rain = 0
KMNS 091205Z 31004KT M08/M09 A3029 RMK A01 T10811094  RH  090%=      5-min Rain = 0
KMNS 091210Z 32004KT M08/M09 A3029 RMK A01 T10801093  RH  090%=      5-min Rain = 0
KMNS 091215Z 31003KT M08/M09 A3029 RMK A01 T10801093  RH  090%=      5-min Rain = 0
KMNS 091220Z 30003KT M08/M09 A3029 RMK A01 T10801093  RH  090%=      5-min Rain = 0
KMNS 091225Z 29004KT M08/M09 A3029 RMK A01 T10801093  RH  090%=      5-min Rain = 0
KMNS 091230Z 29003KT M08/M09 A3029 RMK A01 T10801093  RH  090%=      5-min Rain = 0
KMNS 091235Z 30004KT M08/M10 A3029 RMK A01 T10821095  RH  090%=      5-min Rain = 0
KMNS 091240Z 30004KT M08/M09 A3029 RMK A01 T10811094  RH  090%=      5-min Rain = 0
KMNS 091245Z 31005KT M08/M09 A303 RMK A01 T10791092  RH  090%=      5-min Rain = 0
KMNS 091250Z 32006KT M08/M09 A303 RMK A01 T10761089  RH  090%=      5-min Rain = 0
KMNS 091255Z 31005KT M07/M09 A303 RMK A01 T10741086  RH  091%=      5-min Rain = 0
KMNS 091300Z 31005KT M07/M08 A303 RMK A01 T10711083  RH  091%=      5-min Rain = 0
KMNS 091305Z 31005KT M07/M08 A303 RMK A01 T10701082  RH  091%=      5-min Rain = 0
KMNS 091310Z 30005KT M07/M08 A3031 RMK A01 T10701081  RH  091%=      5-min Rain = 0
KMNS 091315Z 30004KT M07/M08 A3031 RMK A01 T10711082  RH  091%=      5-min Rain = 0
KMNS 091320Z 30005KT M07/M09 A3032 RMK A01 T10731085  RH  091%=      5-min Rain = 0
KMNS 091325Z 31005KT M08/M09 A3032 RMK A01 T10751087  RH  091%=      5-min Rain = 0
KMNS 091330Z 31006KT M07/M09 A3032 RMK A01 T10741087  RH  091%=      5-min Rain = 0
KMNS 091335Z 31006KT M07/M09 A3032 RMK A01 T10731085  RH  091%=      5-min Rain = 0
KMNS 091340Z 31006KT M07/M08 A3032 RMK A01 T10721084  RH  091%=      5-min Rain = 0
KMNS 091345Z 31006KT M07/M08 A3032 RMK A01 T10721084  RH  091%=      5-min Rain = 0
KMNS 091350Z 31005KT M07/M08 A3033 RMK A01 T10691080  RH  091%=      5-min Rain = 0
KMNS 091355Z 30005KT M07/M08 A3033 RMK A01 T10681079  RH  092%=      5-min Rain = 0
KMNS 091400Z 29004KT M07/M08 A3033 RMK A01 T10691081  RH  091%=      5-min Rain = 0
KMNS 091405Z 27003KT M07/M09 A3033 RMK A01 T10731085  RH  091%=      5-min Rain = 0
KMNS 091410Z 28004KT M08/M09 A3033 RMK A01 T10761089  RH  090%=      5-min Rain = 0
KMNS 091415Z 29005KT M08/M09 A3033 RMK A01 T10761089  RH  090%=      5-min Rain = 0
KMNS 091420Z 29005KT M07/M09 A3033 RMK A01 T10741086  RH  090%=      5-min Rain = 0
KMNS 091425Z 29005KT M07/M09 A3033 RMK A01 T10721085  RH  091%=      5-min Rain = 0
KMNS 091430Z 29004KT M07/M08 A3034 RMK A01 T10701083  RH  091%=      5-min Rain = 0
KMNS 091435Z 29003KT M07/M08 A3034 RMK A01 T10671079  RH  091%=      5-min Rain = 0
KMNS 091440Z 29004KT M06/M08 A3034 RMK A01 T10641076  RH  091%=      5-min Rain = 0
KMNS 091445Z 30003KT M06/M07 A3034 RMK A01 T10611073  RH  092%=      5-min Rain = 0
KMNS 091450Z 31004KT M06/M07 A3034 RMK A01 T10591070  RH  092%=      5-min Rain = 0
KMNS 091455Z 31004KT M06/M07 A3035 RMK A01 T10561067  RH  092%=      5-min Rain = 0
KMNS 091500Z 31003KT M05/M06 A3035 RMK A01 T10531064  RH  092%=      5-min Rain = 0
KMNS 091505Z 31004KT M05/M06 A3035 RMK A01 T10501061  RH  092%=      5-min Rain = 0
KMNS 091510Z 31004KT M05/M06 A3035 RMK A01 T10471058  RH  093%=      5-min Rain = 0
KMNS 091515Z 31005KT M04/M05 A3036 RMK A01 T10431053  RH  093%=      5-min Rain = 0
KMNS 091520Z 31004KT M04/M05 A3036 RMK A01 T10401049  RH  093%=      5-min Rain = 0
KMNS 091525Z 31004KT M04/M05 A3036 RMK A01 T10361046  RH  094%=      5-min Rain = 0
KMNS 091530Z 30004KT M03/M04 A3036 RMK A01 T10341043  RH  094%=      5-min Rain = 0
KMNS 091535Z 30004KT M03/M04 A3037 RMK A01 T10311040  RH  094%=      5-min Rain = 0
KMNS 091540Z 31004KT M03/M04 A3037 RMK A01 T10281037  RH  094%=      5-min Rain = 0
KMNS 091545Z 32004KT M03/M04 A3037 RMK A01 T10261035  RH  094%=      5-min Rain = 0
KMNS 091550Z 33003KT M03/M03 A3037 RMK A01 T10251034  RH  094%=      5-min Rain = 0
KMNS 091555Z 32003KT M02/M03 A3037 RMK A01 T10211030  RH  094%=      5-min Rain = 0
KMNS 091600Z 33003KT M02/M03 A3037 RMK A01 T10201030  RH  094%=      5-min Rain = 0
KMNS 091605Z 34002KT M02/M03 A3037 RMK A01 T10181027  RH  094%=      5-min Rain = 0
KMNS 091610Z 33003KT M02/M03 A3038 RMK A01 T10161026  RH  093%=      5-min Rain = 0
KMNS 091615Z 32002KT M01/M03 A3038 RMK A01 T10141025  RH  093%=      5-min Rain = 0.01
KMNS 091620Z 33002KT M01/M02 A3038 RMK A01 T10101021  RH  093%=      5-min Rain = 0
KMNS 091625Z 33002KT M01/M02 A3038 RMK A01 T10081019  RH  093%=      5-min Rain = 0
KMNS 091630Z 30002KT M01/M02 A3038 RMK A01 T10071020  RH  092%=      5-min Rain = 0
KMNS 091635Z 31003KT M01/M02 A3038 RMK A01 T10061019  RH  092%=      5-min Rain = 0
KMNS 091640Z 30003KT M00/M02 A3038 RMK A01 T10041018  RH  091%=      5-min Rain = 0
KMNS 091645Z 30003KT M00/M02 A3038 RMK A01 T10031018  RH  091%=      5-min Rain = 0
KMNS 091650Z 29003KT M00/M02 A3038 RMK A01 T10011017  RH  090%=      5-min Rain = 0
KMNS 091655Z 30003KT 00/M02 A3038 RMK A01 T00011015  RH  090%=      5-min Rain = 0
KMNS 091700Z 31003KT 01/M01 A3039 RMK A01 T00051013  RH  089%=      5-min Rain = 0
KMNS 091705Z 32003KT 01/M01 A3038 RMK A01 T00071012  RH  088%=      5-min Rain = 0
KMNS 091710Z 31003KT 01/M01 A3038 RMK A01 T00081013  RH  087%=      5-min Rain = 0.01
KMNS 091715Z 32003KT 01/M01 A3038 RMK A01 T00111012  RH  086%=      5-min Rain = 0
KMNS 091720Z 34003KT 01/M01 A3038 RMK A01 T00141011  RH  084%=      5-min Rain = 0
KMNS 091725Z 35003KT 02/M01 A3038 RMK A01 T00151012  RH  083%=      5-min Rain = 0
KMNS 091730Z 00002KT 02/M01 A3038 RMK A01 T00181011  RH  082%=      5-min Rain = 0
KMNS 091735Z 01001KT 02/M01 A3038 RMK A01 T00221010  RH  080%=      5-min Rain = 0
KMNS 091740Z 02001KT 03/M01 A3038 RMK A01 T00261010  RH  078%=      5-min Rain = 0.01
KMNS 091745Z 01001KT 03/M01 A3038 RMK A01 T00281010  RH  077%=      5-min Rain = 0.01
KMNS 091750Z 32001KT 03/M01 A3037 RMK A01 T00291011  RH  076%=      5-min Rain = 0.02
KMNS 091755Z 29001KT 03/M01 A3037 RMK A01 T00291012  RH  075%=      5-min Rain = 0.01
KMNS 091800Z 26001KT 03/M01 A3037 RMK A01 T00291011  RH  075%=      5-min Rain = 0.01
KMNS 091805Z 24001KT 03/M01 A3037 RMK A01 T00331010  RH  074%=      5-min Rain = 0
KMNS 091810Z 22000KT 04/M00 A3037 RMK A01 T00441004  RH  072%=      5-min Rain = 0
KMNS 091815Z 25000KT 06/00 A3036 RMK A01 T00570000  RH  068%=      5-min Rain = 0
KMNS 091820Z 24000KT 05/M01 A3036 RMK A01 T00521009  RH  065%=      5-min Rain = 0
KMNS 091825Z 03001KT 05/M01 A3036 RMK A01 T00461010  RH  068%=      5-min Rain = 0
KMNS 091830Z 04000KT 05/M01 A3035 RMK A01 T00451006  RH  070%=      5-min Rain = 0
KMNS 091835Z 23000KT 05/M00 A3035 RMK A01 T00541004  RH  067%=      5-min Rain = 0
KMNS 091840Z 20001KT 05/M01 A3035 RMK A01 T00491009  RH  067%=      5-min Rain = 0
KMNS 091845Z 22001KT 05/M01 A3035 RMK A01 T00481009  RH  067%=      5-min Rain = 0
KMNS 091850Z 22001KT 05/M01 A3035 RMK A01 T00461010  RH  068%=      5-min Rain = 0
KMNS 091855Z 23001KT 05/M01 A3034 RMK A01 T00511009  RH  066%=      5-min Rain = 0
KMNS 091900Z 18001KT 05/M01 A3034 RMK A01 T00491008  RH  067%=      5-min Rain = 0
KMNS 091905Z 17002KT 05/M01 A3034 RMK A01 T00531007  RH  066%=      5-min Rain = 0
KMNS 091910Z 16001KT 06/M01 A3034 RMK A01 T00571005  RH  065%=      5-min Rain = 0
KMNS 091915Z 17002KT 06/M01 A3034 RMK A01 T00611006  RH  063%=      5-min Rain = 0
KMNS 091920Z 17001KT 06/M01 A3033 RMK A01 T00591009  RH  062%=      5-min Rain = 0
KMNS 091925Z 17002KT 06/M01 A3033 RMK A01 T00571009  RH  063%=      5-min Rain = 0
KMNS 091930Z 16002KT 06/M01 A3033 RMK A01 T00571008  RH  064%=      5-min Rain = 0
KMNS 091935Z 18002KT 06/M01 A3033 RMK A01 T00571008  RH  064%=      5-min Rain = 0
KMNS 091940Z 17002KT 06/M01 A3033 RMK A01 T00561007  RH  065%=      5-min Rain = 0
KMNS 091945Z 15001KT 06/M01 A3033 RMK A01 T00621006  RH  062%=      5-min Rain = 0
KMNS 091950Z 18001KT 06/M01 A3033 RMK A01 T00631007  RH  061%=      5-min Rain = 0
KMNS 091955Z 19001KT 06/M01 A3033 RMK A01 T00591007  RH  063%=      5-min Rain = 0
KMNS 092000Z 18001KT 06/M01 A3033 RMK A01 T00641007  RH  061%=      5-min Rain = 0
KMNS 092005Z 20001KT 06/M01 A3033 RMK A01 T00601009  RH  062%=      5-min Rain = 0
KMNS 092010Z 21001KT 06/M01 A3033 RMK A01 T00581011  RH  062%=      5-min Rain = 0
KMNS 092015Z 19002KT 06/M01 A3033 RMK A01 T00581011  RH  062%=      5-min Rain = 0
KMNS 092020Z 18002KT 06/M01 A3033 RMK A01 T00591011  RH  062%=      5-min Rain = 0
KMNS 092025Z 16001KT 07/M01 A3033 RMK A01 T00651008  RH  060%=      5-min Rain = 0
KMNS 092030Z 19002KT 06/M01 A3033 RMK A01 T00621010  RH  060%=      5-min Rain = 0
KMNS 092035Z 18002KT 06/M01 A3033 RMK A01 T00601009  RH  062%=      5-min Rain = 0
KMNS 092040Z 18002KT 07/M01 A3033 RMK A01 T00671008  RH  059%=      5-min Rain = 0
KMNS 092045Z 17001KT 07/M01 A3033 RMK A01 T00671011  RH  058%=      5-min Rain = 0
KMNS 092050Z 16002KT 07/M01 A3033 RMK A01 T00701012  RH  057%=      5-min Rain = 0
KMNS 092055Z 17001KT 07/M01 A3032 RMK A01 T00701013  RH  056%=      5-min Rain = 0
KMNS 092100Z 16001KT 07/M02 A3032 RMK A01 T00721016  RH  054%=      5-min Rain = 0
KMNS 092105Z 17001KT 07/M02 A3032 RMK A01 T00741016  RH  053%=      5-min Rain = 0
KMNS 092110Z 18001KT 07/M02 A3032 RMK A01 T00711017  RH  054%=      5-min Rain = 0
KMNS 092115Z 18001KT 07/M02 A3032 RMK A01 T00731017  RH  053%=      5-min Rain = 0
KMNS 092120Z 14001KT 07/M01 A3032 RMK A01 T00711014  RH  055%=      5-min Rain = 0
KMNS 092125Z 11002KT 07/M02 A3032 RMK A01 T00661015  RH  057%=      5-min Rain = 0
KMNS 092130Z 12002KT 06/M02 A3032 RMK A01 T00611016  RH  058%=      5-min Rain = 0
KMNS 092135Z 17001KT 06/M02 A3032 RMK A01 T00631016  RH  058%=      5-min Rain = 0
KMNS 092140Z 15000KT 07/M02 A3032 RMK A01 T00721016  RH  054%=      5-min Rain = 0
KMNS 092145Z 19001KT 08/M02 A3032 RMK A01 T00771016  RH  052%=      5-min Rain = 0
KMNS 092150Z 21000KT 08/M02 A3032 RMK A01 T00791017  RH  051%=      5-min Rain = 0
KMNS 092155Z 02000KT 08/M02 A3032 RMK A01 T00751020  RH  051%=      5-min Rain = 0
KMNS 092200Z 19001KT 08/M02 A3032 RMK A01 T00771018  RH  051%=      5-min Rain = 0
KMNS 092205Z 21002KT 07/M02 A3032 RMK A01 T00701020  RH  053%=      5-min Rain = 0
KMNS 092210Z 27002KT 06/M02 A3032 RMK A01 T00641023  RH  054%=      5-min Rain = 0
KMNS 092215Z 26002KT 06/M02 A3032 RMK A01 T00631022  RH  055%=      5-min Rain = 0
KMNS 092220Z 21002KT 06/M02 A3032 RMK A01 T00611019  RH  057%=      5-min Rain = 0
KMNS 092225Z 21002KT 06/M02 A3032 RMK A01 T00591017  RH  058%=      5-min Rain = 0
KMNS 092230Z 19003KT 06/M02 A3032 RMK A01 T00591016  RH  059%=      5-min Rain = 0
KMNS 092235Z 19003KT 05/M01 A3032 RMK A01 T00541012  RH  063%=      5-min Rain = 0
KMNS 092240Z 19005KT 05/M01 A3032 RMK A01 T00491012  RH  065%=      5-min Rain = 0
KMNS 092245Z 19005KT 05/M01 A3032 RMK A01 T00471013  RH  066%=      5-min Rain = 0
KMNS 092250Z 19004KT 05/M01 A3032 RMK A01 T00451009  RH  069%=      5-min Rain = 0
KMNS 092255Z 19004KT 04/M01 A3032 RMK A01 T00431009  RH  069%=      5-min Rain = 0
KMNS 092300Z 19004KT 04/M01 A3032 RMK A01 T00411010  RH  070%=      5-min Rain = 0
KMNS 092305Z 18004KT 04/M01 A3032 RMK A01 T00411011  RH  069%=      5-min Rain = 0
KMNS 092310Z 17003KT 04/M02 A3032 RMK A01 T00421015  RH  067%=      5-min Rain = 0
KMNS 092315Z 16001KT 04/M02 A3032 RMK A01 T00421017  RH  066%=      5-min Rain = 0
KMNS 092320Z 17001KT 04/M02 A3032 RMK A01 T00381015  RH  069%=      5-min Rain = 0
KMNS 092325Z 17001KT 04/M02 A3032 RMK A01 T00361018  RH  068%=      5-min Rain = 0
KMNS 092330Z 18001KT 03/M02 A3033 RMK A01 T00281020  RH  071%=      5-min Rain = 0
KMNS 092335Z 18002KT 02/M02 A3033 RMK A01 T00241020  RH  073%=      5-min Rain = 0
KMNS 092340Z 16002KT 02/M02 A3033 RMK A01 T00241019  RH  074%=      5-min Rain = 0
KMNS 092345Z 15003KT 02/M02 A3033 RMK A01 T00221024  RH  073%=      5-min Rain = 0
KMNS 092350Z 16005KT 02/M03 A3032 RMK A01 T00161029  RH  073%=      5-min Rain = 0
KMNS 092355Z 15005KT 01/M03 A3032 RMK A01 T00121030  RH  074%=      5-min Rain = 0
KMNS 100000Z 14004KT 01/M03 A3032 RMK A01 T00111027  RH  076%=      5-min Rain = 0
KMNS 100005Z 13005KT 01/M03 A3032 RMK A01 T00071029  RH  077%=      5-min Rain = 0
KMNS 100010Z 13005KT 00/M03 A3032 RMK A01 T00011031  RH  080%=      5-min Rain = 0
KMNS 100015Z 14005KT M00/M03 A3032 RMK A01 T10011030  RH  081%=      5-min Rain = 0
KMNS 100020Z 14004KT 00/M03 A3033 RMK A01 T00011029  RH  081%=      5-min Rain = 0
KMNS 100025Z 14003KT M00/M03 A3033 RMK A01 T10031032  RH  081%=      5-min Rain = 0
KMNS 100030Z 15003KT M00/M03 A3033 RMK A01 T10021030  RH  082%=      5-min Rain = 0
KMNS 100035Z 17004KT M00/M03 A3033 RMK A01 T10021029  RH  082%=      5-min Rain = 0
KMNS 100040Z 17004KT M00/M03 A3033 RMK A01 T10041032  RH  082%=      5-min Rain = 0
KMNS 100045Z 19004KT M01/M04 A3033 RMK A01 T10091036  RH  083%=      5-min Rain = 0
KMNS 100050Z 19003KT M01/M03 A3033 RMK A01 T10071032  RH  084%=      5-min Rain = 0
KMNS 100055Z 18005KT M01/M03 A3033 RMK A01 T10071032  RH  083%=      5-min Rain = 0
KMNS 100100Z 19005KT M01/M03 A3033 RMK A01 T10081034  RH  083%=      5-min Rain = 0
KMNS 100105Z 20005KT M01/M04 A3033 RMK A01 T10101035  RH  083%=      5-min Rain = 0
KMNS 100110Z 20005KT M01/M03 A3033 RMK A01 T10071034  RH  083%=      5-min Rain = 0
KMNS 100115Z 21003KT M01/M04 A3034 RMK A01 T10091036  RH  082%=      5-min Rain = 0
KMNS 100120Z 19003KT M01/M04 A3034 RMK A01 T10111038  RH  083%=      5-min Rain = 0
KMNS 100125Z 19002KT M01/M04 A3034 RMK A01 T10131038  RH  083%=      5-min Rain = 0
KMNS 100130Z 20002KT M02/M04 A3034 RMK A01 T10181041  RH  084%=      5-min Rain = 0
KMNS 100135Z 20003KT M01/M03 A3035 RMK A01 T10121034  RH  085%=      5-min Rain = 0
KMNS 100140Z 20003KT M01/M03 A3035 RMK A01 T10091032  RH  085%=      5-min Rain = 0
KMNS 100145Z 20003KT M01/M03 A3035 RMK A01 T10101032  RH  086%=      5-min Rain = 0
KMNS 100150Z 21002KT M01/M03 A3035 RMK A01 T10111032  RH  086%=      5-min Rain = 0
KMNS 100155Z 22003KT M01/M03 A3035 RMK A01 T10081028  RH  087%=      5-min Rain = 0
KMNS 100200Z 22001KT M01/M03 A3036 RMK A01 T10131034  RH  086%=      5-min Rain = 0
KMNS 100205Z 21001KT M02/M04 A3036 RMK A01 T10161036  RH  087%=      5-min Rain = 0
KMNS 100210Z 22001KT M02/M03 A3036 RMK A01 T10151034  RH  087%=      5-min Rain = 0
KMNS 100215Z 23002KT M02/M04 A3036 RMK A01 T10161035  RH  088%=      5-min Rain = 0
KMNS 100220Z 23002KT M02/M04 A3036 RMK A01 T10231042  RH  087%=      5-min Rain = 0
KMNS 100225Z 23003KT M02/M04 A3036 RMK A01 T10231040  RH  088%=      5-min Rain = 0
KMNS 100230Z 23002KT M02/M04 A3036 RMK A01 T10201037  RH  089%=      5-min Rain = 0
KMNS 100235Z 25002KT M03/M04 A3036 RMK A01 T10271044  RH  088%=      5-min Rain = 0
KMNS 100240Z 24002KT M02/M04 A3036 RMK A01 T10221038  RH  090%=      5-min Rain = 0
KMNS 100245Z 25002KT M02/M04 A3036 RMK A01 T10221036  RH  090%=      5-min Rain = 0
KMNS 100250Z 26003KT M03/M04 A3037 RMK A01 T10271042  RH  090%=      5-min Rain = 0
KMNS 100255Z 27004KT M03/M04 A3037 RMK A01 T10291043  RH  090%=      5-min Rain = 0
KMNS 100300Z 27004KT M03/M04 A3037 RMK A01 T10281042  RH  091%=      5-min Rain = 0
KMNS 100305Z 29005KT M03/M04 A3038 RMK A01 T10311044  RH  091%=      5-min Rain = 0
KMNS 100310Z 29005KT M04/M05 A3038 RMK A01 T10351048  RH  091%=      5-min Rain = 0
KMNS 100315Z 28005KT M04/M05 A3038 RMK A01 T10361049  RH  091%=      5-min Rain = 0
KMNS 100320Z 28006KT M04/M05 A3038 RMK A01 T10361049  RH  091%=      5-min Rain = 0
KMNS 100325Z 28005KT M04/M05 A3038 RMK A01 T10351047  RH  092%=      5-min Rain = 0
KMNS 100330Z 27005KT M04/M05 A3038 RMK A01 T10381050  RH  091%=      5-min Rain = 0
KMNS 100335Z 28005KT M04/M05 A3038 RMK A01 T10391051  RH  092%=      5-min Rain = 0
KMNS 100340Z 27005KT M04/M05 A3038 RMK A01 T10411053  RH  092%=      5-min Rain = 0
KMNS 100345Z 28005KT M04/M05 A3038 RMK A01 T10421053  RH  092%=      5-min Rain = 0
KMNS 100350Z 28005KT M04/M05 A3038 RMK A01 T10401051  RH  092%=      5-min Rain = 0
KMNS 100355Z 28006KT M04/M05 A3038 RMK A01 T10391050  RH  092%=      5-min Rain = 0
KMNS 100400Z 28006KT M04/M05 A3038 RMK A01 T10391050  RH  092%=      5-min Rain = 0
KMNS 100405Z 28007KT M04/M05 A3038 RMK A01 T10371048  RH  092%=      5-min Rain = 0
KMNS 100410Z 28007KT M04/M05 A3038 RMK A01 T10391050  RH  092%=      5-min Rain = 0
KMNS 100415Z 28007KT M04/M05 A3038 RMK A01 T10391051  RH  092%=      5-min Rain = 0
KMNS 100420Z 28007KT M04/M05 A3039 RMK A01 T10391050  RH  092%=      5-min Rain = 0
KMNS 100425Z 28007KT M04/M05 A3038 RMK A01 T10381049  RH  092%=      5-min Rain = 0
KMNS 100430Z 28007KT M04/M05 A3038 RMK A01 T10371048  RH  092%=      5-min Rain = 0
KMNS 100435Z 28007KT M04/M05 A3038 RMK A01 T10381049  RH  092%=      5-min Rain = 0
KMNS 100440Z 28007KT M04/M05 A3039 RMK A01 T10381050  RH  092%=      5-min Rain = 0
KMNS 100445Z 29007KT M04/M05 A3039 RMK A01 T10361048  RH  092%=      5-min Rain = 0
KMNS 100450Z 29007KT M04/M05 A3039 RMK A01 T10371048  RH  092%=      5-min Rain = 0
KMNS 100455Z 29007KT M04/M05 A3039 RMK A01 T10361047  RH  092%=      5-min Rain = 0
KMNS 100500Z 29007KT M03/M05 A3038 RMK A01 T10341046  RH  092%=      5-min Rain = 0
KMNS 100505Z 28007KT M04/M05 A3038 RMK A01 T10361048  RH  092%=      5-min Rain = 0
KMNS 100510Z 28007KT M04/M05 A3038 RMK A01 T10371050  RH  091%=      5-min Rain = 0
KMNS 100515Z 28007KT M03/M05 A3038 RMK A01 T10341046  RH  092%=      5-min Rain = 0
KMNS 100520Z 28007KT M04/M05 A3038 RMK A01 T10351047  RH  091%=      5-min Rain = 0
KMNS 100525Z 28007KT M04/M05 A3038 RMK A01 T10361048  RH  091%=      5-min Rain = 0
KMNS 100530Z 28007KT M03/M05 A3038 RMK A01 T10341047  RH  092%=      5-min Rain = 0
KMNS 100535Z 28007KT M03/M05 A3038 RMK A01 T10331045  RH  092%=      5-min Rain = 0
KMNS 100540Z 28006KT M03/M05 A3038 RMK A01 T10331045  RH  092%=      5-min Rain = 0
KMNS 100545Z 28005KT M03/M04 A3038 RMK A01 T10321044  RH  092%=      5-min Rain = 0
KMNS 100550Z 29006KT M03/M04 A3038 RMK A01 T10311042  RH  092%=      5-min Rain = 0
KMNS 100555Z 28005KT M03/M04 A3038 RMK A01 T10321043  RH  092%=      5-min Rain = 0

Page generated in 0.01 seconds.